ΕΜΥ, Εθνική Μετεωρολογική Υπηρεσία - Δελτία Καιρού, Προγνώσεις

ΑΕΡΟΝΑΥΤΙΛΙΑ

GREEK AIRPORTS CODES

LGKJ 232000Z AUTO 00000KT //// // ////// 22/13 Q1013 RE//=

EUROPEAN AIRPORTS CODES

LFPO 232000Z 09006KT 060V160 6000 NSC 14/13 Q1008 NOSIG=